createdAt,value
2023-04-17T00:01:16.023Z,26.80
2023-04-17T00:03:45.049Z,23.90
2023-04-17T00:06:14.272Z,22.40
2023-04-17T00:08:43.693Z,21.80
2023-04-17T00:11:11.913Z,22.70
2023-04-17T00:13:44.186Z,27.40
2023-04-17T00:16:13.851Z,25.30
2023-04-17T00:18:43.091Z,23.50
2023-04-17T00:21:11.127Z,25.10
2023-04-17T00:23:39.680Z,26.90
2023-04-17T00:26:07.819Z,27.90
2023-04-17T00:28:36.840Z,23.80
2023-04-17T00:31:05.507Z,21.80
2023-04-17T00:33:33.763Z,27.10
2023-04-17T00:36:01.763Z,21.40
2023-04-17T00:38:30.034Z,25.40
2023-04-17T00:40:58.165Z,25.40
2023-04-17T00:43:26.217Z,25.30
2023-04-17T00:45:54.322Z,25.40
2023-04-17T00:48:24.304Z,23.10
2023-04-17T00:50:52.515Z,24.60
2023-04-17T00:53:20.572Z,24.20
2023-04-17T00:55:48.727Z,22.30
2023-04-17T00:58:16.867Z,24.20
2023-04-17T01:00:45.160Z,19.80
2023-04-17T01:03:13.457Z,26.40
2023-04-17T01:05:42.220Z,22.80
2023-04-17T01:08:10.888Z,22.20
2023-04-17T01:10:38.807Z,21.70
2023-04-17T01:13:07.660Z,22.60
2023-04-17T01:15:36.108Z,22.70
2023-04-17T01:18:04.394Z,23.20
2023-04-17T01:20:33.096Z,22.70
2023-04-17T01:23:01.226Z,22.00
2023-04-17T01:25:30.274Z,21.70
2023-04-17T01:27:58.410Z,22.50
2023-04-17T01:30:28.099Z,19.90
2023-04-17T01:33:01.178Z,21.60
2023-04-17T01:35:30.159Z,20.50
2023-04-17T01:37:58.991Z,23.00
2023-04-17T01:40:27.199Z,28.80
2023-04-17T01:42:55.320Z,23.60
2023-04-17T01:45:23.345Z,28.50
2023-04-17T01:47:51.900Z,22.60
2023-04-17T01:50:20.121Z,22.70
2023-04-17T01:52:48.586Z,27.40
2023-04-17T01:55:16.664Z,27.70
2023-04-17T01:57:44.728Z,25.20
2023-04-17T02:00:13.486Z,22.40
2023-04-17T02:02:44.365Z,25.30
2023-04-17T02:05:12.639Z,28.10
2023-04-17T02:07:41.013Z,22.60
2023-04-17T02:10:09.814Z,26.90
2023-04-17T02:12:38.287Z,22.70
2023-04-17T02:15:07.413Z,25.30
2023-04-17T02:17:35.699Z,20.70
2023-04-17T02:20:07.061Z,25.70
2023-04-17T02:22:35.087Z,28.50
2023-04-17T02:25:03.364Z,26.90
2023-04-17T02:34:43.213Z,26.30
2023-04-17T02:37:10.556Z,26.10
2023-04-17T02:39:37.472Z,26.00
2023-04-17T02:42:04.411Z,23.50
2023-04-17T02:44:31.552Z,28.20
2023-04-17T02:46:58.348Z,27.00
2023-04-17T02:57:08.951Z,27.40
2023-04-17T02:59:37.380Z,25.10
2023-04-17T03:02:05.681Z,21.40
2023-04-17T03:04:38.926Z,26.60
2023-04-17T03:07:07.141Z,24.40
2023-04-17T03:09:35.567Z,24.90
2023-04-17T03:12:06.048Z,25.60
2023-04-17T03:14:34.090Z,19.80
2023-04-17T03:17:02.112Z,27.80
2023-04-17T03:19:30.765Z,22.30
2023-04-17T03:21:58.959Z,24.60
2023-04-17T03:24:27.441Z,25.60
2023-04-17T03:26:56.304Z,19.00
2023-04-17T03:29:24.462Z,20.00
2023-04-17T03:31:52.906Z,20.40
2023-04-17T03:34:21.877Z,24.60
2023-04-17T03:36:50.674Z,20.90
2023-04-17T03:39:18.708Z,20.70
2023-04-17T03:41:47.162Z,24.70
2023-04-17T03:44:15.594Z,21.20
2023-04-17T03:46:43.488Z,22.90
2023-04-17T03:49:11.983Z,19.50
2023-04-17T03:51:42.766Z,19.20
2023-04-17T03:54:17.622Z,20.40
2023-04-17T03:56:47.170Z,16.10
2023-04-17T03:59:15.395Z,23.00
2023-04-17T04:01:46.570Z,19.10
2023-04-17T04:04:19.070Z,17.10
2023-04-17T04:06:49.546Z,18.60
2023-04-17T04:09:20.381Z,14.90
2023-04-17T04:11:48.511Z,18.00
2023-04-17T04:14:16.871Z,17.50
2023-04-17T04:16:47.002Z,17.90
2023-04-17T04:19:16.367Z,17.50
2023-04-17T04:21:45.333Z,18.10
2023-04-17T04:24:14.497Z,21.30
2023-04-17T04:26:43.543Z,17.80
2023-04-17T04:29:13.944Z,17.10
2023-04-17T04:31:53.798Z,15.80
2023-04-17T04:34:26.003Z,18.80
2023-04-17T04:36:57.019Z,15.90
2023-04-17T04:39:39.344Z,17.50
2023-04-17T04:42:10.119Z,15.80
2023-04-17T04:44:56.981Z,15.60
2023-04-17T04:47:26.955Z,13.40
2023-04-17T04:49:55.706Z,15.20
2023-04-17T04:52:24.077Z,15.90
2023-04-17T04:54:54.328Z,12.90
2023-04-17T04:57:22.579Z,16.10
2023-04-17T04:59:51.262Z,17.00
2023-04-17T05:02:33.304Z,15.20
2023-04-17T05:05:02.144Z,13.70
2023-04-17T05:07:32.381Z,17.80
2023-04-17T05:10:01.108Z,13.40
2023-04-17T05:12:33.270Z,17.70
2023-04-17T05:15:01.470Z,15.40
2023-04-17T05:17:30.157Z,13.70
2023-04-17T05:19:58.323Z,14.40
2023-04-17T05:22:27.753Z,14.80
2023-04-17T05:25:08.740Z,14.10
2023-04-17T05:27:36.868Z,16.50
2023-04-17T05:30:05.729Z,16.20
2023-04-17T05:32:35.174Z,12.70
2023-04-17T05:35:28.999Z,15.50
2023-04-17T05:37:57.531Z,13.30
2023-04-17T05:40:25.881Z,12.30
2023-04-17T05:42:54.016Z,13.90
2023-04-17T05:45:24.198Z,15.30
2023-04-17T05:47:53.733Z,13.00
2023-04-17T05:50:22.006Z,15.60
2023-04-17T05:52:50.869Z,12.90
2023-04-17T05:55:20.479Z,13.70
2023-04-17T05:57:49.739Z,18.30
2023-04-17T06:00:18.825Z,15.20
2023-04-17T06:02:49.962Z,12.00
2023-04-17T06:05:26.381Z,11.40
2023-04-17T06:07:54.527Z,14.50
2023-04-17T06:10:23.095Z,16.80
2023-04-17T06:12:51.476Z,15.00
2023-04-17T06:15:19.908Z,12.30
2023-04-17T06:17:48.078Z,14.60
2023-04-17T06:20:16.417Z,12.20
2023-04-17T06:22:46.851Z,12.80
2023-04-17T06:25:14.959Z,15.30
2023-04-17T06:27:43.506Z,13.60
2023-04-17T06:30:12.286Z,12.40
2023-04-17T06:32:49.092Z,10.80
2023-04-17T06:35:17.655Z,11.10
2023-04-17T06:37:49.351Z,12.00
2023-04-17T06:40:17.640Z,13.10
2023-04-17T06:42:45.783Z,17.80
2023-04-17T06:45:19.107Z,16.60
2023-04-17T06:47:47.309Z,11.10
2023-04-17T06:50:18.577Z,9.90
2023-04-17T06:52:46.748Z,9.90
2023-04-17T06:55:15.054Z,14.40
2023-04-17T06:57:43.001Z,9.90
2023-04-17T07:00:12.283Z,11.00
2023-04-17T07:02:40.982Z,10.00
2023-04-17T07:05:09.470Z,11.50
2023-04-17T07:07:37.791Z,8.50
2023-04-17T07:10:06.958Z,12.90
2023-04-17T07:12:35.302Z,9.70
2023-04-17T07:15:03.494Z,8.90
2023-04-17T07:17:32.006Z,10.00
2023-04-17T07:20:00.005Z,10.50
2023-04-17T07:22:28.962Z,12.20
2023-04-17T07:24:57.230Z,13.00
2023-04-17T07:27:25.621Z,9.80
2023-04-17T07:29:55.315Z,10.60
2023-04-17T07:32:26.249Z,13.00
2023-04-17T07:34:54.249Z,8.90
2023-04-17T07:37:22.291Z,11.60
2023-04-17T07:39:50.605Z,15.80
2023-04-17T07:42:18.656Z,11.90
2023-04-17T07:44:47.497Z,9.40
2023-04-17T07:47:15.616Z,13.30
2023-04-17T07:49:49.045Z,10.70
2023-04-17T07:52:18.312Z,10.70
2023-04-17T07:54:46.540Z,11.90
2023-04-17T07:57:15.483Z,10.40
2023-04-17T07:59:44.128Z,12.00
2023-04-17T08:02:12.404Z,13.20
2023-04-17T08:04:41.983Z,13.50
2023-04-17T08:07:11.397Z,11.70
2023-04-17T08:09:40.583Z,13.20
2023-04-17T08:12:09.934Z,13.90
2023-04-17T08:14:38.871Z,8.90
2023-04-17T08:17:07.826Z,9.90
2023-04-17T08:19:36.157Z,10.30
2023-04-17T08:22:04.822Z,10.20
2023-04-17T08:24:33.174Z,9.80
2023-04-17T08:27:01.641Z,9.20
2023-04-17T08:29:29.749Z,14.40
2023-04-17T08:32:10.863Z,14.10
2023-04-17T08:34:42.559Z,12.00
2023-04-17T08:37:10.851Z,14.70
2023-04-17T08:39:38.982Z,13.60
2023-04-17T08:42:08.044Z,13.20
2023-04-17T08:44:36.400Z,12.00
2023-04-17T08:47:05.658Z,9.90
2023-04-17T08:49:35.036Z,7.80
2023-04-17T08:52:08.265Z,8.30
2023-04-17T08:54:37.968Z,10.10
2023-04-17T08:57:06.323Z,10.60
2023-04-17T08:59:34.350Z,10.50
2023-04-17T09:02:07.498Z,9.10
2023-04-17T09:04:42.574Z,9.40
2023-04-17T09:07:12.187Z,8.40
2023-04-17T09:09:56.229Z,10.00
2023-04-17T09:12:25.414Z,10.70
2023-04-17T09:14:54.069Z,12.50
2023-04-17T09:17:22.248Z,10.70
2023-04-17T09:20:15.020Z,11.30
2023-04-17T09:22:43.364Z,10.40
2023-04-17T09:25:21.110Z,8.90
2023-04-17T09:27:49.314Z,9.10
2023-04-17T09:30:17.505Z,11.20
2023-04-17T09:32:45.710Z,8.50
2023-04-17T09:35:23.813Z,9.40
2023-04-17T09:37:52.965Z,10.00
2023-04-17T09:40:23.243Z,13.90
2023-04-17T09:42:56.169Z,7.60
2023-04-17T09:45:25.294Z,11.40
2023-04-17T09:47:56.140Z,8.00
2023-04-17T09:50:27.255Z,8.60
2023-04-17T09:52:56.222Z,9.60
2023-04-17T09:55:25.217Z,12.40
2023-04-17T09:57:54.272Z,10.40
2023-04-17T10:00:23.853Z,8.80
2023-04-17T10:02:52.380Z,11.20
2023-04-17T10:05:21.933Z,9.20
2023-04-17T10:07:50.175Z,8.50
2023-04-17T10:10:33.875Z,10.30
2023-04-17T10:13:03.393Z,7.90
2023-04-17T10:15:31.454Z,8.20
2023-04-17T10:18:23.853Z,9.10
2023-04-17T10:20:53.787Z,8.90
2023-04-17T10:23:31.692Z,9.00
2023-04-17T10:26:24.677Z,8.70
2023-04-17T10:28:53.852Z,10.60
2023-04-17T10:31:23.860Z,16.10
2023-04-17T10:33:54.316Z,8.30
2023-04-17T10:36:40.974Z,11.90
2023-04-17T10:39:16.345Z,12.30
2023-04-17T10:42:03.514Z,9.90
2023-04-17T10:44:35.653Z,9.10
2023-04-17T10:47:16.280Z,10.90
2023-04-17T10:49:55.671Z,7.90
2023-04-17T10:52:33.420Z,11.70
2023-04-17T10:55:05.750Z,8.70
2023-04-17T10:57:59.390Z,9.30
2023-04-17T11:00:32.320Z,7.40
2023-04-17T11:03:01.381Z,11.80
2023-04-17T11:05:31.492Z,8.00
2023-04-17T11:07:59.601Z,12.60
2023-04-17T11:10:27.933Z,10.80
2023-04-17T11:12:56.947Z,11.60
2023-04-17T11:15:32.123Z,9.60
2023-04-17T11:18:00.413Z,9.40
2023-04-17T11:20:30.252Z,14.30
2023-04-17T11:23:02.901Z,8.70
2023-04-17T11:25:33.955Z,9.50
2023-04-17T11:28:04.955Z,10.20
2023-04-17T11:30:34.652Z,11.50
2023-04-17T11:33:04.261Z,8.60
2023-04-17T11:35:34.126Z,7.90
2023-04-17T11:38:28.677Z,7.70
2023-04-17T11:41:00.456Z,9.10
2023-04-17T11:43:29.584Z,8.50
2023-04-17T11:45:59.262Z,11.60
2023-04-17T11:48:28.498Z,9.00
2023-04-17T11:51:04.120Z,11.50
2023-04-17T11:53:34.539Z,7.10
2023-04-17T11:56:22.337Z,10.40
2023-04-17T11:58:54.709Z,9.30
2023-04-17T12:01:25.008Z,11.70
2023-04-17T12:03:57.210Z,9.90
2023-04-17T12:06:37.914Z,9.30
2023-04-17T12:09:07.444Z,10.10
2023-04-17T12:11:36.090Z,8.70
2023-04-17T12:14:11.863Z,9.40
2023-04-17T12:16:40.216Z,7.60
2023-04-17T12:19:08.847Z,7.60
2023-04-17T12:21:37.274Z,7.60
2023-04-17T12:24:05.942Z,8.20
2023-04-17T12:26:34.070Z,8.50
2023-04-17T12:29:02.239Z,11.20
2023-04-17T12:31:31.018Z,9.60
2023-04-17T12:33:58.933Z,8.40
2023-04-17T12:36:27.056Z,5.90
2023-04-17T12:38:55.426Z,7.60
2023-04-17T12:41:26.676Z,6.30
2023-04-17T12:43:54.779Z,8.00
2023-04-17T12:46:23.077Z,13.40
2023-04-17T12:48:58.363Z,8.90
2023-04-17T12:51:30.719Z,8.90
2023-04-17T12:53:58.769Z,7.80
2023-04-17T12:56:26.787Z,6.90
2023-04-17T12:58:54.800Z,5.80
2023-04-17T13:01:22.980Z,6.80
2023-04-17T13:03:51.233Z,6.90
2023-04-17T13:06:21.599Z,7.20
2023-04-17T13:08:49.980Z,5.80
2023-04-17T13:11:17.969Z,7.60
2023-04-17T13:13:46.229Z,5.40
2023-04-17T13:16:14.362Z,8.20
2023-04-17T13:18:42.626Z,4.80
2023-04-17T13:21:10.781Z,5.90
2023-04-17T13:23:38.854Z,7.10
2023-04-17T13:26:06.851Z,8.60
2023-04-17T13:28:34.863Z,6.80
2023-04-17T13:31:03.332Z,6.20
2023-04-17T13:33:31.754Z,6.30
2023-04-17T13:35:59.740Z,9.10
2023-04-17T13:38:27.891Z,7.70
2023-04-17T13:40:56.046Z,5.70
2023-04-17T13:43:24.455Z,5.60
2023-04-17T13:45:55.408Z,4.70
2023-04-17T13:48:23.912Z,5.10
2023-04-17T13:50:52.131Z,4.20
2023-04-17T13:53:20.399Z,4.60
2023-04-17T13:55:49.468Z,6.20
2023-04-17T13:58:17.705Z,4.60
2023-04-17T14:00:46.720Z,4.10
2023-04-17T14:03:14.982Z,8.30
2023-04-17T14:05:43.211Z,6.70
2023-04-17T14:08:11.550Z,4.70
2023-04-17T14:10:39.585Z,12.50
2023-04-17T14:13:07.717Z,6.80
2023-04-17T14:15:36.571Z,4.50
2023-04-17T14:18:05.145Z,4.10
2023-04-17T14:20:33.561Z,5.70
2023-04-17T14:23:01.805Z,7.00
2023-04-17T14:25:29.915Z,4.60
2023-04-17T14:27:57.952Z,7.40
2023-04-17T14:30:26.204Z,4.70
2023-04-17T14:32:54.583Z,7.50
2023-04-17T14:35:23.583Z,4.50
2023-04-17T14:37:51.553Z,8.90
2023-04-17T14:40:19.556Z,3.50
2023-04-17T14:42:54.034Z,5.60
2023-04-17T14:45:22.901Z,5.70
2023-04-17T14:47:51.212Z,6.40
2023-04-17T14:50:19.698Z,4.90
2023-04-17T14:52:47.904Z,5.50
2023-04-17T14:55:16.042Z,5.20
2023-04-17T14:57:44.276Z,6.40
2023-04-17T15:00:13.030Z,6.20
2023-04-17T15:02:41.472Z,9.80
2023-04-17T15:05:10.075Z,11.50
2023-04-17T15:07:38.961Z,5.30
2023-04-17T15:10:07.569Z,7.40
2023-04-17T15:12:35.958Z,7.90
2023-04-17T15:15:05.140Z,9.00
2023-04-17T15:17:33.906Z,7.80
2023-04-17T15:20:01.998Z,8.00
2023-04-17T15:22:30.412Z,7.40
2023-04-17T15:24:58.678Z,6.80
2023-04-17T15:27:26.733Z,7.40
2023-04-17T15:29:54.845Z,6.20
2023-04-17T15:32:23.157Z,7.20
2023-04-17T15:34:51.426Z,5.80
2023-04-17T15:37:19.462Z,8.60
2023-04-17T15:39:47.784Z,8.80
2023-04-17T15:42:16.153Z,5.90
2023-04-17T15:44:44.169Z,5.30
2023-04-17T15:47:12.093Z,6.30
2023-04-17T15:49:40.432Z,7.00
2023-04-17T15:52:08.770Z,9.40
2023-04-17T15:54:37.854Z,7.70
2023-04-17T16:04:43.972Z,9.90
2023-04-17T16:07:12.377Z,8.10
2023-04-17T16:09:41.876Z,10.10
2023-04-17T16:12:10.356Z,11.30
2023-04-17T16:14:38.641Z,12.00
2023-04-17T16:17:07.246Z,9.10
2023-04-17T16:19:35.625Z,5.40
2023-04-17T16:22:03.996Z,4.90
2023-04-17T16:24:32.209Z,6.50
2023-04-17T16:27:01.243Z,11.40
2023-04-17T16:29:29.537Z,7.00
2023-04-17T16:31:58.275Z,12.40
2023-04-17T16:34:26.539Z,8.40
2023-04-17T16:36:54.476Z,9.40
2023-04-17T16:39:22.631Z,10.00
2023-04-17T16:41:52.927Z,7.60
2023-04-17T16:44:21.331Z,7.40
2023-04-17T16:47:09.349Z,8.10
2023-04-17T16:49:38.329Z,9.30
2023-04-17T16:52:06.454Z,13.80
2023-04-17T16:54:34.920Z,10.90
2023-04-17T16:57:06.152Z,12.80
2023-04-17T16:59:34.469Z,11.40
2023-04-17T17:02:02.904Z,12.60
2023-04-17T17:04:31.476Z,9.00
2023-04-17T17:06:59.588Z,10.40
2023-04-17T17:09:27.912Z,11.30
2023-04-17T17:11:56.977Z,9.70
2023-04-17T17:14:24.994Z,11.10
2023-04-17T17:16:53.728Z,11.50
2023-04-17T17:19:22.111Z,8.50
2023-04-17T17:21:50.678Z,10.00
2023-04-17T17:24:18.719Z,9.50
2023-04-17T17:26:46.886Z,9.90
2023-04-17T17:29:15.424Z,10.80
2023-04-17T17:31:43.838Z,9.60
2023-04-17T17:36:43.759Z,11.00
2023-04-17T17:39:12.143Z,11.50
2023-04-17T17:41:40.813Z,10.90
2023-04-17T17:44:08.960Z,10.10
2023-04-17T17:46:37.576Z,12.90
2023-04-17T17:49:05.945Z,9.50
2023-04-17T17:51:34.127Z,10.40
2023-04-17T17:54:02.329Z,8.30
2023-04-17T17:56:30.724Z,8.30
2023-04-17T17:58:59.163Z,11.50
2023-04-17T18:01:27.319Z,9.40
2023-04-17T18:03:55.960Z,10.50
2023-04-17T18:06:25.274Z,9.90
2023-04-17T18:08:54.200Z,12.90
2023-04-17T18:11:23.039Z,8.60
2023-04-17T18:13:51.327Z,10.10
2023-04-17T18:16:19.839Z,11.60
2023-04-17T18:18:48.006Z,9.30
2023-04-17T18:21:16.176Z,8.20
2023-04-17T18:23:44.485Z,10.90
2023-04-17T18:26:13.175Z,12.50
2023-04-17T18:28:42.741Z,14.20
2023-04-17T18:31:11.219Z,12.80
2023-04-17T18:33:39.444Z,7.80
2023-04-17T18:36:08.808Z,10.60
2023-04-17T18:38:37.291Z,12.50
2023-04-17T18:41:05.989Z,10.80
2023-04-17T18:43:34.643Z,12.20
2023-04-17T18:46:04.940Z,15.80
2023-04-17T18:48:34.277Z,11.20
2023-04-17T18:51:12.774Z,12.90
2023-04-17T18:53:40.906Z,11.40
2023-04-17T18:56:10.904Z,11.00
2023-04-17T18:58:40.535Z,15.50
2023-04-17T19:01:10.731Z,14.60
2023-04-17T19:03:39.621Z,9.40
2023-04-17T19:06:07.757Z,10.20
2023-04-17T19:08:36.409Z,17.50
2023-04-17T19:11:04.419Z,10.20
2023-04-17T19:13:32.766Z,10.60
2023-04-17T19:16:01.056Z,12.00
2023-04-17T19:18:29.932Z,19.00
2023-04-17T19:20:58.086Z,12.30
2023-04-17T19:23:26.621Z,17.50
2023-04-17T19:25:55.208Z,13.10
2023-04-17T19:28:23.548Z,14.70
2023-04-17T19:30:51.742Z,17.70
2023-04-17T19:33:20.370Z,13.60
2023-04-17T19:35:52.533Z,13.40
2023-04-17T19:38:21.576Z,12.70
2023-04-17T19:41:17.486Z,15.10
2023-04-17T19:43:52.668Z,12.20
2023-04-17T19:46:21.771Z,16.90
2023-04-17T19:48:51.010Z,11.90
2023-04-17T19:51:19.336Z,13.60
2023-04-17T19:53:48.215Z,14.90
2023-04-17T19:56:16.504Z,14.50
2023-04-17T19:58:44.730Z,13.10
2023-04-17T20:01:12.981Z,13.30
2023-04-17T20:03:42.390Z,14.70
2023-04-17T20:06:10.792Z,15.10
2023-04-17T20:08:39.395Z,15.10
2023-04-17T20:11:12.204Z,13.50
2023-04-17T20:13:40.443Z,13.10
2023-04-17T20:16:08.542Z,14.60
2023-04-17T20:18:37.990Z,13.50
2023-04-17T20:21:06.587Z,14.50
2023-04-17T20:23:34.972Z,11.40
2023-04-17T20:26:03.514Z,12.60
2023-04-17T20:28:31.808Z,13.10
2023-04-17T20:30:59.973Z,12.20
2023-04-17T20:33:28.083Z,15.80
2023-04-17T20:35:56.411Z,11.60
2023-04-17T20:38:24.742Z,12.90
2023-04-17T20:40:52.794Z,13.20
2023-04-17T20:43:21.095Z,13.40
2023-04-17T20:45:49.765Z,14.20
2023-04-17T20:48:18.762Z,12.50
2023-04-17T20:50:46.874Z,11.80
2023-04-17T20:53:14.959Z,10.20
2023-04-17T20:55:43.069Z,12.60
2023-04-17T20:58:11.027Z,13.50
2023-04-17T21:00:44.855Z,13.40
2023-04-17T21:03:22.250Z,19.00
2023-04-17T21:05:50.263Z,18.20
2023-04-17T21:08:18.368Z,11.30
2023-04-17T21:10:46.375Z,16.00
2023-04-17T21:13:14.272Z,13.70
2023-04-17T21:15:42.334Z,10.60
2023-04-17T21:18:10.365Z,12.20
2023-04-17T21:20:38.956Z,12.40
2023-04-17T21:23:06.892Z,12.30
2023-04-17T21:25:35.849Z,10.70
2023-04-17T21:28:03.820Z,9.40
2023-04-17T21:30:32.074Z,11.40
2023-04-17T21:33:00.120Z,9.60
2023-04-17T21:35:28.197Z,8.70
2023-04-17T21:37:56.457Z,7.20
2023-04-17T21:40:26.143Z,10.50
2023-04-17T21:42:54.255Z,8.70
2023-04-17T21:45:22.199Z,9.30
2023-04-17T21:47:50.186Z,10.10
2023-04-17T21:50:18.315Z,8.80
2023-04-17T21:52:46.218Z,9.60
2023-04-17T21:55:14.128Z,11.80
2023-04-17T21:57:42.165Z,13.40
2023-04-17T22:00:14.520Z,13.00
2023-04-17T22:02:42.697Z,21.30
2023-04-17T22:05:11.628Z,15.70
2023-04-17T22:07:53.687Z,18.70
2023-04-17T22:10:23.835Z,15.00
2023-04-17T22:12:51.790Z,14.10
2023-04-17T22:15:19.703Z,16.10
2023-04-17T22:17:47.627Z,14.00
2023-04-17T22:20:15.792Z,14.10
2023-04-17T22:22:43.861Z,14.80
2023-04-17T22:25:11.795Z,15.00
2023-04-17T22:27:40.309Z,15.70
2023-04-17T22:30:08.473Z,15.60
2023-04-17T22:32:37.446Z,12.10
2023-04-17T22:35:06.590Z,13.60
2023-04-17T22:37:34.510Z,9.60
2023-04-17T22:40:02.571Z,12.40
2023-04-17T22:42:30.873Z,10.90
2023-04-17T22:44:58.786Z,10.00
2023-04-17T22:47:26.738Z,10.90
2023-04-17T22:49:55.157Z,12.10
2023-04-17T22:52:23.074Z,9.70
2023-04-17T22:54:51.001Z,11.50
2023-04-17T22:57:18.994Z,8.80
2023-04-17T22:59:46.942Z,8.90
2023-04-17T23:02:14.908Z,10.10
2023-04-17T23:04:42.871Z,8.30
2023-04-17T23:07:10.811Z,8.20
2023-04-17T23:09:39.149Z,10.00
2023-04-17T23:12:07.299Z,9.20
2023-04-17T23:14:35.491Z,9.00
2023-04-17T23:17:03.506Z,11.50
2023-04-17T23:19:31.841Z,8.70
2023-04-17T23:22:01.132Z,8.60
2023-04-17T23:24:32.230Z,9.60
2023-04-17T23:27:01.536Z,8.20
2023-04-17T23:29:29.436Z,11.80
2023-04-17T23:31:57.346Z,7.30
2023-04-17T23:34:26.068Z,8.20
2023-04-17T23:36:53.975Z,11.50
2023-04-17T23:39:22.340Z,8.10
2023-04-17T23:41:50.716Z,12.30
2023-04-17T23:44:18.856Z,8.40
2023-04-17T23:46:46.899Z,9.60
2023-04-17T23:49:14.778Z,7.70
2023-04-17T23:51:42.647Z,8.50
2023-04-17T23:54:10.569Z,9.40
2023-04-17T23:56:38.627Z,9.60
2023-04-17T23:59:06.908Z,7.60
